sensor_id;sensor_type;location;lat;lon;timestamp;P1;durP1;ratioP1;P2;durP2;ratioP2
77010;SDS011;65945;53.148;17.956;2024-03-02T00:00:44;56.30;;;29.70;;
77010;SDS011;65945;53.148;17.956;2024-03-02T00:03:33;57.50;;;30.00;;
77010;SDS011;65945;53.148;17.956;2024-03-02T00:05:59;56.00;;;28.10;;
77010;SDS011;65945;53.148;17.956;2024-03-02T00:08:26;55.70;;;27.50;;
77010;SDS011;65945;53.148;17.956;2024-03-02T00:10:57;59.00;;;28.60;;
77010;SDS011;65945;53.148;17.956;2024-03-02T00:13:25;61.00;;;29.90;;
77010;SDS011;65945;53.148;17.956;2024-03-02T00:15:56;62.50;;;29.40;;
77010;SDS011;65945;53.148;17.956;2024-03-02T00:18:34;61.30;;;29.50;;
77010;SDS011;65945;53.148;17.956;2024-03-02T00:21:01;59.00;;;29.90;;
77010;SDS011;65945;53.148;17.956;2024-03-02T00:23:30;64.20;;;29.30;;
77010;SDS011;65945;53.148;17.956;2024-03-02T00:25:57;62.10;;;30.10;;
77010;SDS011;65945;53.148;17.956;2024-03-02T00:28:25;64.50;;;31.20;;
77010;SDS011;65945;53.148;17.956;2024-03-02T00:33:26;60.80;;;29.90;;
77010;SDS011;65945;53.148;17.956;2024-03-02T00:35:56;67.90;;;31.80;;
77010;SDS011;65945;53.148;17.956;2024-03-02T00:38:23;62.90;;;29.30;;
77010;SDS011;65945;53.148;17.956;2024-03-02T00:40:50;63.80;;;29.20;;
77010;SDS011;65945;53.148;17.956;2024-03-02T00:46:05;51.00;;;23.20;;
77010;SDS011;65945;53.148;17.956;2024-03-02T00:48:32;61.80;;;30.40;;
77010;SDS011;65945;53.148;17.956;2024-03-02T00:51:05;69.80;;;32.50;;
77010;SDS011;65945;53.148;17.956;2024-03-02T00:53:31;61.90;;;29.20;;
77010;SDS011;65945;53.148;17.956;2024-03-02T00:55:59;66.50;;;31.10;;
77010;SDS011;65945;53.148;17.956;2024-03-02T00:58:27;67.80;;;31.00;;
77010;SDS011;65945;53.148;17.956;2024-03-02T01:00:54;64.30;;;29.20;;
77010;SDS011;65945;53.148;17.956;2024-03-02T01:03:20;63.20;;;31.00;;
77010;SDS011;65945;53.148;17.956;2024-03-02T01:05:47;55.70;;;26.10;;
77010;SDS011;65945;53.148;17.956;2024-03-02T01:08:14;61.80;;;29.60;;
77010;SDS011;65945;53.148;17.956;2024-03-02T01:10:41;67.30;;;30.50;;
77010;SDS011;65945;53.148;17.956;2024-03-02T01:13:08;65.80;;;31.30;;
77010;SDS011;65945;53.148;17.956;2024-03-02T01:15:34;64.00;;;31.50;;
77010;SDS011;65945;53.148;17.956;2024-03-02T01:18:01;68.00;;;31.60;;
77010;SDS011;65945;53.148;17.956;2024-03-02T01:20:27;59.60;;;29.00;;
77010;SDS011;65945;53.148;17.956;2024-03-02T01:22:54;64.10;;;30.70;;
77010;SDS011;65945;53.148;17.956;2024-03-02T01:25:21;61.30;;;29.20;;
77010;SDS011;65945;53.148;17.956;2024-03-02T01:27:48;62.90;;;29.60;;
77010;SDS011;65945;53.148;17.956;2024-03-02T01:30:15;54.40;;;25.70;;
77010;SDS011;65945;53.148;17.956;2024-03-02T01:32:41;67.60;;;29.40;;
77010;SDS011;65945;53.148;17.956;2024-03-02T01:35:08;59.10;;;27.90;;
77010;SDS011;65945;53.148;17.956;2024-03-02T01:37:35;62.10;;;30.10;;
77010;SDS011;65945;53.148;17.956;2024-03-02T01:40:02;52.30;;;25.00;;
77010;SDS011;65945;53.148;17.956;2024-03-02T01:42:29;63.80;;;29.70;;
77010;SDS011;65945;53.148;17.956;2024-03-02T01:44:57;62.50;;;28.90;;
77010;SDS011;65945;53.148;17.956;2024-03-02T01:47:23;62.70;;;31.10;;
77010;SDS011;65945;53.148;17.956;2024-03-02T01:49:50;64.20;;;29.50;;
77010;SDS011;65945;53.148;17.956;2024-03-02T01:52:17;60.60;;;29.00;;
77010;SDS011;65945;53.148;17.956;2024-03-02T01:54:43;58.60;;;27.70;;
77010;SDS011;65945;53.148;17.956;2024-03-02T01:57:10;67.30;;;30.70;;
77010;SDS011;65945;53.148;17.956;2024-03-02T01:59:37;62.70;;;30.30;;
77010;SDS011;65945;53.148;17.956;2024-03-02T02:02:04;61.40;;;29.30;;
77010;SDS011;65945;53.148;17.956;2024-03-02T02:04:30;63.10;;;29.40;;
77010;SDS011;65945;53.148;17.956;2024-03-02T02:06:57;68.40;;;30.30;;
77010;SDS011;65945;53.148;17.956;2024-03-02T02:09:24;62.70;;;29.40;;
77010;SDS011;65945;53.148;17.956;2024-03-02T02:11:51;59.50;;;28.50;;
77010;SDS011;65945;53.148;17.956;2024-03-02T02:14:18;66.10;;;30.40;;
77010;SDS011;65945;53.148;17.956;2024-03-02T02:16:45;70.40;;;31.30;;
77010;SDS011;65945;53.148;17.956;2024-03-02T02:19:12;61.80;;;29.40;;
77010;SDS011;65945;53.148;17.956;2024-03-02T02:21:41;63.90;;;29.00;;
77010;SDS011;65945;53.148;17.956;2024-03-02T02:24:09;67.10;;;30.20;;
77010;SDS011;65945;53.148;17.956;2024-03-02T02:26:36;66.90;;;30.20;;
77010;SDS011;65945;53.148;17.956;2024-03-02T02:29:03;59.00;;;29.40;;
77010;SDS011;65945;53.148;17.956;2024-03-02T02:31:42;62.80;;;28.90;;
77010;SDS011;65945;53.148;17.956;2024-03-02T02:34:09;57.70;;;24.60;;
77010;SDS011;65945;53.148;17.956;2024-03-02T02:36:37;55.20;;;26.90;;
77010;SDS011;65945;53.148;17.956;2024-03-02T02:39:05;57.40;;;27.00;;
77010;SDS011;65945;53.148;17.956;2024-03-02T02:41:37;58.40;;;28.00;;
77010;SDS011;65945;53.148;17.956;2024-03-02T02:44:04;52.00;;;25.00;;
77010;SDS011;65945;53.148;17.956;2024-03-02T02:46:31;51.20;;;25.80;;
77010;SDS011;65945;53.148;17.956;2024-03-02T02:48:58;56.50;;;26.70;;
77010;SDS011;65945;53.148;17.956;2024-03-02T02:51:25;52.60;;;26.80;;
77010;SDS011;65945;53.148;17.956;2024-03-02T02:53:54;55.70;;;26.20;;
77010;SDS011;65945;53.148;17.956;2024-03-02T02:56:20;63.00;;;26.60;;
77010;SDS011;65945;53.148;17.956;2024-03-02T02:58:47;53.40;;;27.30;;
77010;SDS011;65945;53.148;17.956;2024-03-02T03:01:16;58.60;;;27.10;;
77010;SDS011;65945;53.148;17.956;2024-03-02T03:03:44;49.20;;;25.30;;
77010;SDS011;65945;53.148;17.956;2024-03-02T03:06:12;52.70;;;25.50;;
77010;SDS011;65945;53.148;17.956;2024-03-02T03:08:38;55.90;;;26.70;;
77010;SDS011;65945;53.148;17.956;2024-03-02T03:11:05;50.70;;;25.50;;
77010;SDS011;65945;53.148;17.956;2024-03-02T03:13:32;55.70;;;26.00;;
77010;SDS011;65945;53.148;17.956;2024-03-02T03:15:59;51.20;;;26.20;;
77010;SDS011;65945;53.148;17.956;2024-03-02T03:18:26;52.10;;;24.80;;
77010;SDS011;65945;53.148;17.956;2024-03-02T03:20:52;50.80;;;25.90;;
77010;SDS011;65945;53.148;17.956;2024-03-02T03:23:19;49.60;;;23.50;;
77010;SDS011;65945;53.148;17.956;2024-03-02T03:25:47;52.30;;;25.50;;
77010;SDS011;65945;53.148;17.956;2024-03-02T03:28:13;53.70;;;26.00;;
77010;SDS011;65945;53.148;17.956;2024-03-02T03:30:40;47.00;;;23.40;;
77010;SDS011;65945;53.148;17.956;2024-03-02T03:33:07;48.80;;;24.20;;
77010;SDS011;65945;53.148;17.956;2024-03-02T03:35:34;42.90;;;21.20;;
77010;SDS011;65945;53.148;17.956;2024-03-02T03:38:02;45.60;;;22.40;;
77010;SDS011;65945;53.148;17.956;2024-03-02T03:40:29;47.00;;;23.00;;
77010;SDS011;65945;53.148;17.956;2024-03-02T03:42:56;47.50;;;23.80;;
77010;SDS011;65945;53.148;17.956;2024-03-02T03:45:23;43.00;;;21.60;;
77010;SDS011;65945;53.148;17.956;2024-03-02T03:47:53;43.90;;;21.70;;
77010;SDS011;65945;53.148;17.956;2024-03-02T03:50:20;48.10;;;24.30;;
77010;SDS011;65945;53.148;17.956;2024-03-02T03:52:47;40.90;;;21.80;;
77010;SDS011;65945;53.148;17.956;2024-03-02T03:55:14;42.30;;;19.80;;
77010;SDS011;65945;53.148;17.956;2024-03-02T03:57:40;45.00;;;23.30;;
77010;SDS011;65945;53.148;17.956;2024-03-02T04:00:07;45.60;;;22.90;;
77010;SDS011;65945;53.148;17.956;2024-03-02T04:02:39;41.10;;;21.70;;
77010;SDS011;65945;53.148;17.956;2024-03-02T04:05:06;41.40;;;21.50;;
77010;SDS011;65945;53.148;17.956;2024-03-02T04:07:35;44.60;;;22.50;;
77010;SDS011;65945;53.148;17.956;2024-03-02T04:10:10;43.50;;;22.40;;
77010;SDS011;65945;53.148;17.956;2024-03-02T04:12:37;41.00;;;20.50;;
77010;SDS011;65945;53.148;17.956;2024-03-02T04:15:04;40.50;;;21.00;;
77010;SDS011;65945;53.148;17.956;2024-03-02T04:17:32;41.20;;;21.30;;
77010;SDS011;65945;53.148;17.956;2024-03-02T04:20:00;41.40;;;22.40;;
77010;SDS011;65945;53.148;17.956;2024-03-02T04:22:27;39.20;;;20.90;;
77010;SDS011;65945;53.148;17.956;2024-03-02T04:24:54;36.80;;;20.10;;
77010;SDS011;65945;53.148;17.956;2024-03-02T04:27:21;37.20;;;20.90;;
77010;SDS011;65945;53.148;17.956;2024-03-02T04:29:48;38.70;;;19.80;;
77010;SDS011;65945;53.148;17.956;2024-03-02T04:32:15;35.70;;;18.60;;
77010;SDS011;65945;53.148;17.956;2024-03-02T04:34:41;35.90;;;18.10;;
77010;SDS011;65945;53.148;17.956;2024-03-02T04:37:08;34.10;;;18.70;;
77010;SDS011;65945;53.148;17.956;2024-03-02T04:39:38;34.80;;;18.20;;
77010;SDS011;65945;53.148;17.956;2024-03-02T04:42:05;37.90;;;20.00;;
77010;SDS011;65945;53.148;17.956;2024-03-02T04:44:31;33.00;;;18.30;;
77010;SDS011;65945;53.148;17.956;2024-03-02T04:46:58;39.70;;;19.60;;
77010;SDS011;65945;53.148;17.956;2024-03-02T04:49:24;39.90;;;19.70;;
77010;SDS011;65945;53.148;17.956;2024-03-02T04:51:51;38.00;;;20.60;;
77010;SDS011;65945;53.148;17.956;2024-03-02T04:54:18;36.40;;;21.50;;
77010;SDS011;65945;53.148;17.956;2024-03-02T04:56:44;35.30;;;17.90;;
77010;SDS011;65945;53.148;17.956;2024-03-02T04:59:16;37.80;;;19.60;;
77010;SDS011;65945;53.148;17.956;2024-03-02T05:01:43;34.70;;;17.90;;
77010;SDS011;65945;53.148;17.956;2024-03-02T05:04:10;33.60;;;19.40;;
77010;SDS011;65945;53.148;17.956;2024-03-02T05:06:38;38.20;;;20.90;;
77010;SDS011;65945;53.148;17.956;2024-03-02T05:09:08;36.90;;;18.40;;
77010;SDS011;65945;53.148;17.956;2024-03-02T05:11:35;34.60;;;19.30;;
77010;SDS011;65945;53.148;17.956;2024-03-02T05:14:06;35.90;;;19.90;;
77010;SDS011;65945;53.148;17.956;2024-03-02T05:16:33;32.10;;;18.80;;
77010;SDS011;65945;53.148;17.956;2024-03-02T05:19:00;36.90;;;20.20;;
77010;SDS011;65945;53.148;17.956;2024-03-02T05:21:27;35.70;;;19.80;;
77010;SDS011;65945;53.148;17.956;2024-03-02T05:23:54;36.70;;;20.00;;
77010;SDS011;65945;53.148;17.956;2024-03-02T05:26:20;36.20;;;19.60;;
77010;SDS011;65945;53.148;17.956;2024-03-02T05:28:47;32.90;;;19.40;;
77010;SDS011;65945;53.148;17.956;2024-03-02T05:31:17;32.40;;;17.40;;
77010;SDS011;65945;53.148;17.956;2024-03-02T05:33:43;33.00;;;19.90;;
77010;SDS011;65945;53.148;17.956;2024-03-02T05:36:10;31.80;;;18.70;;
77010;SDS011;65945;53.148;17.956;2024-03-02T05:38:37;39.70;;;20.20;;
77010;SDS011;65945;53.148;17.956;2024-03-02T05:41:04;40.20;;;23.10;;
77010;SDS011;65945;53.148;17.956;2024-03-02T05:43:31;40.50;;;25.60;;
77010;SDS011;65945;53.148;17.956;2024-03-02T05:45:57;41.40;;;25.40;;
77010;SDS011;65945;53.148;17.956;2024-03-02T05:48:24;37.30;;;21.30;;
77010;SDS011;65945;53.148;17.956;2024-03-02T05:50:51;39.50;;;24.00;;
77010;SDS011;65945;53.148;17.956;2024-03-02T05:53:17;39.90;;;23.50;;
77010;SDS011;65945;53.148;17.956;2024-03-02T05:55:44;43.40;;;23.70;;
77010;SDS011;65945;53.148;17.956;2024-03-02T05:58:11;48.70;;;28.60;;
77010;SDS011;65945;53.148;17.956;2024-03-02T06:00:58;38.30;;;22.30;;
77010;SDS011;65945;53.148;17.956;2024-03-02T06:03:25;38.20;;;22.20;;
77010;SDS011;65945;53.148;17.956;2024-03-02T06:05:52;43.00;;;23.10;;
77010;SDS011;65945;53.148;17.956;2024-03-02T06:08:18;34.60;;;16.90;;
77010;SDS011;65945;53.148;17.956;2024-03-02T06:10:45;36.60;;;20.20;;
77010;SDS011;65945;53.148;17.956;2024-03-02T06:13:12;35.80;;;19.80;;
77010;SDS011;65945;53.148;17.956;2024-03-02T06:15:39;36.50;;;19.00;;
77010;SDS011;65945;53.148;17.956;2024-03-02T06:18:05;40.20;;;21.30;;
77010;SDS011;65945;53.148;17.956;2024-03-02T06:20:34;36.80;;;21.30;;
77010;SDS011;65945;53.148;17.956;2024-03-02T06:23:00;39.10;;;22.50;;
77010;SDS011;65945;53.148;17.956;2024-03-02T06:25:27;41.90;;;22.30;;
77010;SDS011;65945;53.148;17.956;2024-03-02T06:27:54;45.20;;;22.80;;
77010;SDS011;65945;53.148;17.956;2024-03-02T06:30:21;34.40;;;21.20;;
77010;SDS011;65945;53.148;17.956;2024-03-02T06:32:47;36.80;;;20.60;;
77010;SDS011;65945;53.148;17.956;2024-03-02T06:35:14;41.10;;;22.60;;
77010;SDS011;65945;53.148;17.956;2024-03-02T06:37:41;37.70;;;20.20;;
77010;SDS011;65945;53.148;17.956;2024-03-02T06:40:08;40.00;;;21.30;;
77010;SDS011;65945;53.148;17.956;2024-03-02T06:42:35;39.30;;;20.90;;
77010;SDS011;65945;53.148;17.956;2024-03-02T06:45:02;34.50;;;20.00;;
77010;SDS011;65945;53.148;17.956;2024-03-02T06:47:29;49.40;;;25.00;;
77010;SDS011;65945;53.148;17.956;2024-03-02T06:49:56;47.40;;;25.00;;
77010;SDS011;65945;53.148;17.956;2024-03-02T06:52:24;40.00;;;23.00;;
77010;SDS011;65945;53.148;17.956;2024-03-02T06:54:51;41.70;;;22.40;;
77010;SDS011;65945;53.148;17.956;2024-03-02T06:57:18;46.60;;;24.00;;
77010;SDS011;65945;53.148;17.956;2024-03-02T06:59:46;42.40;;;23.70;;
77010;SDS011;65945;53.148;17.956;2024-03-02T07:02:13;42.40;;;23.50;;
77010;SDS011;65945;53.148;17.956;2024-03-02T07:04:40;33.80;;;20.90;;
77010;SDS011;65945;53.148;17.956;2024-03-02T07:07:07;40.60;;;21.90;;
77010;SDS011;65945;53.148;17.956;2024-03-02T07:09:33;41.60;;;22.10;;
77010;SDS011;65945;53.148;17.956;2024-03-02T07:12:00;38.50;;;22.30;;
77010;SDS011;65945;53.148;17.956;2024-03-02T07:14:26;40.90;;;22.70;;
77010;SDS011;65945;53.148;17.956;2024-03-02T07:17:13;35.80;;;17.30;;
77010;SDS011;65945;53.148;17.956;2024-03-02T07:19:40;35.50;;;18.90;;
77010;SDS011;65945;53.148;17.956;2024-03-02T07:22:06;42.40;;;20.90;;
77010;SDS011;65945;53.148;17.956;2024-03-02T07:24:41;36.40;;;21.20;;
77010;SDS011;65945;53.148;17.956;2024-03-02T07:27:09;41.10;;;22.50;;
77010;SDS011;65945;53.148;17.956;2024-03-02T07:29:36;40.10;;;22.80;;
77010;SDS011;65945;53.148;17.956;2024-03-02T07:32:03;35.10;;;20.60;;
77010;SDS011;65945;53.148;17.956;2024-03-02T07:34:30;39.80;;;21.30;;
77010;SDS011;65945;53.148;17.956;2024-03-02T07:36:57;39.50;;;21.70;;
77010;SDS011;65945;53.148;17.956;2024-03-02T07:39:24;38.50;;;22.80;;
77010;SDS011;65945;53.148;17.956;2024-03-02T07:41:50;40.50;;;21.40;;
77010;SDS011;65945;53.148;17.956;2024-03-02T07:44:17;37.60;;;19.80;;
77010;SDS011;65945;53.148;17.956;2024-03-02T07:46:45;31.30;;;19.20;;
77010;SDS011;65945;53.148;17.956;2024-03-02T07:49:13;37.40;;;21.50;;
77010;SDS011;65945;53.148;17.956;2024-03-02T07:51:42;32.00;;;18.40;;
77010;SDS011;65945;53.148;17.956;2024-03-02T07:54:10;40.20;;;20.70;;
77010;SDS011;65945;53.148;17.956;2024-03-02T07:56:37;38.30;;;21.70;;
77010;SDS011;65945;53.148;17.956;2024-03-02T07:59:04;37.80;;;22.40;;
77010;SDS011;65945;53.148;17.956;2024-03-02T08:01:31;36.00;;;21.60;;
77010;SDS011;65945;53.148;17.956;2024-03-02T08:03:59;39.10;;;21.90;;
77010;SDS011;65945;53.148;17.956;2024-03-02T08:06:27;37.20;;;21.60;;
77010;SDS011;65945;53.148;17.956;2024-03-02T08:08:54;38.50;;;21.20;;
77010;SDS011;65945;53.148;17.956;2024-03-02T08:11:22;34.30;;;20.20;;
77010;SDS011;65945;53.148;17.956;2024-03-02T08:13:49;38.00;;;20.70;;
77010;SDS011;65945;53.148;17.956;2024-03-02T08:16:16;38.00;;;22.00;;
77010;SDS011;65945;53.148;17.956;2024-03-02T08:18:46;35.90;;;21.00;;
77010;SDS011;65945;53.148;17.956;2024-03-02T08:21:14;31.90;;;19.80;;
77010;SDS011;65945;53.148;17.956;2024-03-02T08:23:40;34.50;;;20.00;;
77010;SDS011;65945;53.148;17.956;2024-03-02T08:26:09;34.80;;;19.30;;
77010;SDS011;65945;53.148;17.956;2024-03-02T08:28:36;34.80;;;20.60;;
77010;SDS011;65945;53.148;17.956;2024-03-02T08:31:03;34.10;;;20.70;;
77010;SDS011;65945;53.148;17.956;2024-03-02T08:33:30;30.80;;;18.10;;
77010;SDS011;65945;53.148;17.956;2024-03-02T08:35:57;33.20;;;20.90;;
77010;SDS011;65945;53.148;17.956;2024-03-02T08:38:24;30.40;;;18.60;;
77010;SDS011;65945;53.148;17.956;2024-03-02T08:40:51;34.50;;;20.50;;
77010;SDS011;65945;53.148;17.956;2024-03-02T08:43:18;27.70;;;16.70;;
77010;SDS011;65945;53.148;17.956;2024-03-02T08:45:44;31.00;;;18.80;;
77010;SDS011;65945;53.148;17.956;2024-03-02T08:48:11;34.60;;;20.60;;
77010;SDS011;65945;53.148;17.956;2024-03-02T08:50:38;35.00;;;19.80;;
77010;SDS011;65945;53.148;17.956;2024-03-02T08:53:04;33.30;;;20.90;;
77010;SDS011;65945;53.148;17.956;2024-03-02T08:55:31;31.10;;;19.60;;
77010;SDS011;65945;53.148;17.956;2024-03-02T08:57:58;37.70;;;20.70;;
77010;SDS011;65945;53.148;17.956;2024-03-02T09:00:24;32.90;;;19.90;;
77010;SDS011;65945;53.148;17.956;2024-03-02T09:02:51;36.20;;;21.30;;
77010;SDS011;65945;53.148;17.956;2024-03-02T09:05:18;40.90;;;21.10;;
77010;SDS011;65945;53.148;17.956;2024-03-02T09:07:45;29.90;;;17.20;;
77010;SDS011;65945;53.148;17.956;2024-03-02T09:10:12;29.50;;;18.10;;
77010;SDS011;65945;53.148;17.956;2024-03-02T09:12:39;33.10;;;18.60;;
77010;SDS011;65945;53.148;17.956;2024-03-02T09:15:06;32.20;;;18.90;;
77010;SDS011;65945;53.148;17.956;2024-03-02T09:17:33;34.10;;;18.20;;
77010;SDS011;65945;53.148;17.956;2024-03-02T09:19:59;30.70;;;18.80;;
77010;SDS011;65945;53.148;17.956;2024-03-02T09:22:26;34.70;;;19.60;;
77010;SDS011;65945;53.148;17.956;2024-03-02T09:24:53;30.80;;;17.80;;
77010;SDS011;65945;53.148;17.956;2024-03-02T09:27:19;37.50;;;20.80;;
77010;SDS011;65945;53.148;17.956;2024-03-02T09:29:46;37.20;;;19.00;;
77010;SDS011;65945;53.148;17.956;2024-03-02T09:32:12;36.10;;;20.60;;
77010;SDS011;65945;53.148;17.956;2024-03-02T09:34:40;33.60;;;18.10;;
77010;SDS011;65945;53.148;17.956;2024-03-02T09:37:07;38.10;;;20.20;;
77010;SDS011;65945;53.148;17.956;2024-03-02T09:39:34;33.70;;;18.20;;
77010;SDS011;65945;53.148;17.956;2024-03-02T09:42:01;33.60;;;19.30;;
77010;SDS011;65945;53.148;17.956;2024-03-02T09:44:30;29.50;;;17.60;;
77010;SDS011;65945;53.148;17.956;2024-03-02T09:46:56;29.80;;;17.10;;
77010;SDS011;65945;53.148;17.956;2024-03-02T09:49:23;33.60;;;19.50;;
77010;SDS011;65945;53.148;17.956;2024-03-02T09:51:50;28.80;;;18.30;;
77010;SDS011;65945;53.148;17.956;2024-03-02T09:54:17;28.10;;;16.40;;
77010;SDS011;65945;53.148;17.956;2024-03-02T09:56:44;29.70;;;17.60;;
77010;SDS011;65945;53.148;17.956;2024-03-02T09:59:11;30.20;;;18.80;;
77010;SDS011;65945;53.148;17.956;2024-03-02T10:01:39;27.50;;;17.00;;
77010;SDS011;65945;53.148;17.956;2024-03-02T10:04:06;34.20;;;18.30;;
77010;SDS011;65945;53.148;17.956;2024-03-02T10:06:33;32.60;;;18.20;;
77010;SDS011;65945;53.148;17.956;2024-03-02T10:08:59;30.20;;;17.20;;
77010;SDS011;65945;53.148;17.956;2024-03-02T10:11:30;28.40;;;17.20;;
77010;SDS011;65945;53.148;17.956;2024-03-02T10:14:07;34.40;;;18.90;;
77010;SDS011;65945;53.148;17.956;2024-03-02T10:16:35;31.00;;;18.40;;
77010;SDS011;65945;53.148;17.956;2024-03-02T10:21:50;29.70;;;16.90;;
77010;SDS011;65945;53.148;17.956;2024-03-02T10:24:18;34.70;;;18.60;;
77010;SDS011;65945;53.148;17.956;2024-03-02T10:26:46;38.10;;;19.20;;
77010;SDS011;65945;53.148;17.956;2024-03-02T10:29:13;42.40;;;20.00;;
77010;SDS011;65945;53.148;17.956;2024-03-02T10:31:44;35.90;;;17.40;;
77010;SDS011;65945;53.148;17.956;2024-03-02T10:34:14;35.40;;;18.20;;
77010;SDS011;65945;53.148;17.956;2024-03-02T10:36:43;33.00;;;19.20;;
77010;SDS011;65945;53.148;17.956;2024-03-02T10:39:14;38.40;;;17.90;;
77010;SDS011;65945;53.148;17.956;2024-03-02T10:41:41;37.10;;;19.40;;
77010;SDS011;65945;53.148;17.956;2024-03-02T10:44:08;27.80;;;16.70;;
77010;SDS011;65945;53.148;17.956;2024-03-02T10:46:36;43.90;;;24.30;;
77010;SDS011;65945;53.148;17.956;2024-03-02T10:49:04;35.00;;;18.90;;
77010;SDS011;65945;53.148;17.956;2024-03-02T10:51:32;31.70;;;18.10;;
77010;SDS011;65945;53.148;17.956;2024-03-02T10:54:00;36.20;;;19.20;;
77010;SDS011;65945;53.148;17.956;2024-03-02T10:56:28;48.60;;;26.00;;
77010;SDS011;65945;53.148;17.956;2024-03-02T11:01:32;31.40;;;18.40;;
77010;SDS011;65945;53.148;17.956;2024-03-02T11:04:01;32.30;;;20.50;;
77010;SDS011;65945;53.148;17.956;2024-03-02T11:06:30;31.60;;;18.70;;
77010;SDS011;65945;53.148;17.956;2024-03-02T11:09:00;28.20;;;16.20;;
77010;SDS011;65945;53.148;17.956;2024-03-02T11:11:32;32.80;;;16.50;;
77010;SDS011;65945;53.148;17.956;2024-03-02T11:14:04;25.80;;;16.00;;
77010;SDS011;65945;53.148;17.956;2024-03-02T11:16:35;30.80;;;18.70;;
77010;SDS011;65945;53.148;17.956;2024-03-02T11:19:06;35.40;;;19.20;;
77010;SDS011;65945;53.148;17.956;2024-03-02T11:21:36;30.50;;;18.10;;
77010;SDS011;65945;53.148;17.956;2024-03-02T11:27:03;38.10;;;21.40;;
77010;SDS011;65945;53.148;17.956;2024-03-02T11:32:19;31.70;;;19.00;;
77010;SDS011;65945;53.148;17.956;2024-03-02T11:34:48;28.10;;;15.90;;
77010;SDS011;65945;53.148;17.956;2024-03-02T11:37:16;28.00;;;17.10;;
77010;SDS011;65945;53.148;17.956;2024-03-02T11:39:46;28.40;;;17.40;;
77010;SDS011;65945;53.148;17.956;2024-03-02T11:42:15;26.80;;;15.70;;
77010;SDS011;65945;53.148;17.956;2024-03-02T11:44:43;28.80;;;17.50;;
77010;SDS011;65945;53.148;17.956;2024-03-02T11:47:13;34.20;;;18.50;;
77010;SDS011;65945;53.148;17.956;2024-03-02T11:49:51;31.50;;;18.50;;
77010;SDS011;65945;53.148;17.956;2024-03-02T11:52:18;33.90;;;19.40;;
77010;SDS011;65945;53.148;17.956;2024-03-02T11:54:46;29.10;;;17.50;;
77010;SDS011;65945;53.148;17.956;2024-03-02T11:57:14;30.90;;;18.90;;
77010;SDS011;65945;53.148;17.956;2024-03-02T11:59:43;31.70;;;16.60;;
77010;SDS011;65945;53.148;17.956;2024-03-02T12:02:16;28.10;;;18.00;;
77010;SDS011;65945;53.148;17.956;2024-03-02T12:04:44;30.10;;;18.10;;
77010;SDS011;65945;53.148;17.956;2024-03-02T12:07:11;32.10;;;18.00;;
77010;SDS011;65945;53.148;17.956;2024-03-02T12:09:39;27.70;;;16.20;;
77010;SDS011;65945;53.148;17.956;2024-03-02T12:12:07;28.10;;;16.30;;
77010;SDS011;65945;53.148;17.956;2024-03-02T12:14:36;30.70;;;18.00;;
77010;SDS011;65945;53.148;17.956;2024-03-02T12:17:04;34.00;;;19.00;;
77010;SDS011;65945;53.148;17.956;2024-03-02T12:19:32;31.40;;;17.80;;
77010;SDS011;65945;53.148;17.956;2024-03-02T12:21:59;29.70;;;18.30;;
77010;SDS011;65945;53.148;17.956;2024-03-02T12:24:28;31.50;;;18.70;;
77010;SDS011;65945;53.148;17.956;2024-03-02T12:26:56;34.20;;;17.90;;
77010;SDS011;65945;53.148;17.956;2024-03-02T12:29:24;29.00;;;18.10;;
77010;SDS011;65945;53.148;17.956;2024-03-02T12:31:51;29.70;;;18.80;;
77010;SDS011;65945;53.148;17.956;2024-03-02T12:34:19;33.80;;;19.00;;
77010;SDS011;65945;53.148;17.956;2024-03-02T12:36:46;36.30;;;19.40;;
77010;SDS011;65945;53.148;17.956;2024-03-02T12:39:19;25.80;;;16.40;;
77010;SDS011;65945;53.148;17.956;2024-03-02T12:41:46;27.50;;;16.20;;
77010;SDS011;65945;53.148;17.956;2024-03-02T12:44:13;34.70;;;18.20;;
77010;SDS011;65945;53.148;17.956;2024-03-02T12:46:40;32.10;;;18.70;;
77010;SDS011;65945;53.148;17.956;2024-03-02T12:49:10;29.20;;;18.30;;
77010;SDS011;65945;53.148;17.956;2024-03-02T12:51:39;31.90;;;19.20;;
77010;SDS011;65945;53.148;17.956;2024-03-02T12:54:09;37.00;;;20.30;;
77010;SDS011;65945;53.148;17.956;2024-03-02T12:56:37;45.60;;;24.30;;
77010;SDS011;65945;53.148;17.956;2024-03-02T12:59:04;27.40;;;17.30;;
77010;SDS011;65945;53.148;17.956;2024-03-02T13:01:31;32.70;;;17.50;;
77010;SDS011;65945;53.148;17.956;2024-03-02T13:03:58;34.50;;;18.90;;
77010;SDS011;65945;53.148;17.956;2024-03-02T13:06:25;29.90;;;16.00;;
77010;SDS011;65945;53.148;17.956;2024-03-02T13:08:56;33.40;;;19.20;;
77010;SDS011;65945;53.148;17.956;2024-03-02T13:11:22;30.60;;;18.50;;
77010;SDS011;65945;53.148;17.956;2024-03-02T13:13:51;34.00;;;18.20;;
77010;SDS011;65945;53.148;17.956;2024-03-02T13:16:18;32.10;;;17.40;;
77010;SDS011;65945;53.148;17.956;2024-03-02T13:18:46;32.10;;;18.30;;
77010;SDS011;65945;53.148;17.956;2024-03-02T13:21:13;33.70;;;18.80;;
77010;SDS011;65945;53.148;17.956;2024-03-02T13:23:39;35.00;;;20.50;;
77010;SDS011;65945;53.148;17.956;2024-03-02T13:26:06;32.60;;;19.30;;
77010;SDS011;65945;53.148;17.956;2024-03-02T13:28:33;41.40;;;21.10;;
77010;SDS011;65945;53.148;17.956;2024-03-02T13:31:00;33.40;;;18.80;;
77010;SDS011;65945;53.148;17.956;2024-03-02T13:33:27;35.10;;;20.30;;
77010;SDS011;65945;53.148;17.956;2024-03-02T13:35:53;32.80;;;19.70;;
77010;SDS011;65945;53.148;17.956;2024-03-02T13:38:20;33.30;;;19.50;;
77010;SDS011;65945;53.148;17.956;2024-03-02T13:40:48;41.10;;;25.80;;
77010;SDS011;65945;53.148;17.956;2024-03-02T13:43:18;44.10;;;26.90;;
77010;SDS011;65945;53.148;17.956;2024-03-02T13:45:46;44.20;;;22.40;;
77010;SDS011;65945;53.148;17.956;2024-03-02T13:48:12;36.60;;;23.30;;
77010;SDS011;65945;53.148;17.956;2024-03-02T13:50:41;36.00;;;22.30;;
77010;SDS011;65945;53.148;17.956;2024-03-02T13:53:07;35.40;;;19.30;;
77010;SDS011;65945;53.148;17.956;2024-03-02T13:55:35;31.20;;;18.60;;
77010;SDS011;65945;53.148;17.956;2024-03-02T13:58:02;36.20;;;21.60;;
77010;SDS011;65945;53.148;17.956;2024-03-02T14:00:28;36.90;;;22.10;;
77010;SDS011;65945;53.148;17.956;2024-03-02T14:02:55;33.60;;;20.70;;
77010;SDS011;65945;53.148;17.956;2024-03-02T14:05:23;37.20;;;22.30;;
77010;SDS011;65945;53.148;17.956;2024-03-02T14:07:49;41.50;;;23.10;;
77010;SDS011;65945;53.148;17.956;2024-03-02T14:10:16;37.30;;;22.70;;
77010;SDS011;65945;53.148;17.956;2024-03-02T14:12:44;40.30;;;22.80;;
77010;SDS011;65945;53.148;17.956;2024-03-02T14:15:11;46.10;;;25.80;;
77010;SDS011;65945;53.148;17.956;2024-03-02T14:17:37;45.00;;;25.00;;
77010;SDS011;65945;53.148;17.956;2024-03-02T14:20:05;42.70;;;26.60;;
77010;SDS011;65945;53.148;17.956;2024-03-02T14:22:33;42.10;;;25.00;;
77010;SDS011;65945;53.148;17.956;2024-03-02T14:25:00;46.90;;;27.50;;
77010;SDS011;65945;53.148;17.956;2024-03-02T14:27:27;45.90;;;25.70;;